Horatio, South Carolina
Current Conditions -  °F | °C
As of 5:58 AM on Friday 28 Nov 2014 (Local Time) from KSSC Reporting Station
Clear Clear  
Wind Chill: 30°   Ceiling: Unl
Heat Index: 30°   Visibility: 10mi
Dew Point: 26°   Wind: 3mph
Humidity: 86%   Direction: 330°NNW
Pressure: 30.33"   Gusts: NA
Location:  34.02°N, 80.57°W
Report Text: KSSC 281058Z AUTO 33003KT 10SM CLR M01/M03 A3033 RMK AO2 SLP274 T10121033 $
Loading
Personal Weather Stations






























Interactive Weather Map New forecast layout! Learn more

10-Day Weather Forecast

Advertisements
Track Severe Weather on mobile